Huvudsida
METAR-TAF:

METAR-TAF

Flygplatser :

Tartus flygplats

Tartu, Estland

latitud: 58-18N, longitud: 026-44E, höjd: 59 m

Aktuellt väderrapport

Denna rapport gjordes för 12 minuter sedan, klockan 10:20 UTC
Vind 8 kt från ost/nordost, varierande mellan nord/nordost och ost
Temperatur 18°C
Fuktighet 32%
Tryck 1022 hPa
Sikt 10 km eller mer
Inga moln under 1 500 m eller inga cumulonimbus

METAR: EETU 211020Z 07008KT 030V100 CAVOK 18/01 Q1022

Tid: 13:32 (10:32 UTC)


TAF: saknas

Aktuella väderrapporter och prognoser från 4000 flygplatser (METAR- och TAF-rapporter).

De tillgängliga stationerna syns som gula och röda prickar på kartan.

För musen över prickarna för att se namnen på stationerna.

Klicka sedan för att få väderrapporter och prognoser.

För att ändra kartan: Klicka på de gröna knapparna med ett svart kors på för att zooma in; den gröna knappen med ett streck på för att zooma ut; eller på de gröna pilarna för angränsande kartor.


METAR-TAF: